sensor_id;sensor_type;location;lat;lon;timestamp;P1;durP1;ratioP1;P2;durP2;ratioP2
68176;SDS011;56478;50.982;7.032;2023-06-19T00:02:20;5.15;;;4.65;;
68176;SDS011;56478;50.982;7.032;2023-06-19T00:04:46;5.72;;;4.50;;
68176;SDS011;56478;50.982;7.032;2023-06-19T00:07:11;5.00;;;4.60;;
68176;SDS011;56478;50.982;7.032;2023-06-19T00:09:37;5.05;;;4.47;;
68176;SDS011;56478;50.982;7.032;2023-06-19T00:12:02;4.75;;;4.35;;
68176;SDS011;56478;50.982;7.032;2023-06-19T00:14:29;4.47;;;4.18;;
68176;SDS011;56478;50.982;7.032;2023-06-19T00:16:54;4.47;;;4.18;;
68176;SDS011;56478;50.982;7.032;2023-06-19T00:19:21;4.43;;;4.13;;
68176;SDS011;56478;50.982;7.032;2023-06-19T00:21:47;5.43;;;4.20;;
68176;SDS011;56478;50.982;7.032;2023-06-19T00:24:12;4.30;;;4.00;;
68176;SDS011;56478;50.982;7.032;2023-06-19T00:26:38;4.28;;;3.92;;
68176;SDS011;56478;50.982;7.032;2023-06-19T00:29:03;4.50;;;4.20;;
68176;SDS011;56478;50.982;7.032;2023-06-19T00:31:29;4.78;;;4.38;;
68176;SDS011;56478;50.982;7.032;2023-06-19T00:33:55;4.57;;;4.20;;
68176;SDS011;56478;50.982;7.032;2023-06-19T00:36:20;4.72;;;4.32;;
68176;SDS011;56478;50.982;7.032;2023-06-19T00:38:48;4.78;;;4.07;;
68176;SDS011;56478;50.982;7.032;2023-06-19T00:41:15;4.35;;;4.00;;
68176;SDS011;56478;50.982;7.032;2023-06-19T00:43:41;4.80;;;4.30;;
68176;SDS011;56478;50.982;7.032;2023-06-19T00:46:07;4.60;;;4.30;;
68176;SDS011;56478;50.982;7.032;2023-06-19T00:48:34;4.50;;;4.20;;
68176;SDS011;56478;50.982;7.032;2023-06-19T00:51:00;4.70;;;4.18;;
68176;SDS011;56478;50.982;7.032;2023-06-19T00:53:26;5.32;;;4.30;;
68176;SDS011;56478;50.982;7.032;2023-06-19T00:55:53;4.90;;;4.50;;
68176;SDS011;56478;50.982;7.032;2023-06-19T00:58:20;5.10;;;4.70;;
68176;SDS011;56478;50.982;7.032;2023-06-19T01:00:46;5.25;;;4.70;;
68176;SDS011;56478;50.982;7.032;2023-06-19T01:03:12;5.20;;;4.80;;
68176;SDS011;56478;50.982;7.032;2023-06-19T01:05:38;5.30;;;4.90;;
68176;SDS011;56478;50.982;7.032;2023-06-19T01:08:10;4.97;;;4.55;;
68176;SDS011;56478;50.982;7.032;2023-06-19T01:10:44;5.28;;;4.82;;
68176;SDS011;56478;50.982;7.032;2023-06-19T01:13:27;5.10;;;4.65;;
68176;SDS011;56478;50.982;7.032;2023-06-19T01:15:58;5.78;;;4.75;;
68176;SDS011;56478;50.982;7.032;2023-06-19T01:18:26;4.95;;;4.55;;
68176;SDS011;56478;50.982;7.032;2023-06-19T01:20:53;5.18;;;4.78;;
68176;SDS011;56478;50.982;7.032;2023-06-19T01:23:18;5.32;;;4.90;;
68176;SDS011;56478;50.982;7.032;2023-06-19T01:25:44;5.00;;;4.60;;
68176;SDS011;56478;50.982;7.032;2023-06-19T01:28:10;5.40;;;4.95;;
68176;SDS011;56478;50.982;7.032;2023-06-19T01:30:39;6.63;;;5.00;;
68176;SDS011;56478;50.982;7.032;2023-06-19T01:33:11;4.93;;;4.53;;
68176;SDS011;56478;50.982;7.032;2023-06-19T01:35:42;5.30;;;4.80;;
68176;SDS011;56478;50.982;7.032;2023-06-19T01:38:08;6.00;;;5.13;;
68176;SDS011;56478;50.982;7.032;2023-06-19T01:40:35;5.38;;;4.88;;
68176;SDS011;56478;50.982;7.032;2023-06-19T01:43:02;8.38;;;4.97;;
68176;SDS011;56478;50.982;7.032;2023-06-19T01:45:30;5.53;;;5.03;;
68176;SDS011;56478;50.982;7.032;2023-06-19T01:47:56;5.47;;;4.97;;
68176;SDS011;56478;50.982;7.032;2023-06-19T01:50:22;5.45;;;4.93;;
68176;SDS011;56478;50.982;7.032;2023-06-19T01:52:48;8.52;;;5.15;;
68176;SDS011;56478;50.982;7.032;2023-06-19T01:55:14;5.95;;;5.43;;
68176;SDS011;56478;50.982;7.032;2023-06-19T01:57:39;7.15;;;4.85;;
68176;SDS011;56478;50.982;7.032;2023-06-19T02:00:05;5.63;;;5.22;;
68176;SDS011;56478;50.982;7.032;2023-06-19T02:02:35;5.60;;;5.10;;
68176;SDS011;56478;50.982;7.032;2023-06-19T02:05:01;5.70;;;5.30;;
68176;SDS011;56478;50.982;7.032;2023-06-19T02:07:27;5.72;;;5.22;;
68176;SDS011;56478;50.982;7.032;2023-06-19T02:09:53;6.60;;;5.50;;
68176;SDS011;56478;50.982;7.032;2023-06-19T02:12:18;5.80;;;5.22;;
68176;SDS011;56478;50.982;7.032;2023-06-19T02:14:44;5.75;;;5.25;;
68176;SDS011;56478;50.982;7.032;2023-06-19T02:17:09;6.47;;;5.70;;
68176;SDS011;56478;50.982;7.032;2023-06-19T02:19:35;6.28;;;5.68;;
68176;SDS011;56478;50.982;7.032;2023-06-19T02:22:00;6.20;;;5.60;;
68176;SDS011;56478;50.982;7.032;2023-06-19T02:24:26;6.95;;;5.32;;
68176;SDS011;56478;50.982;7.032;2023-06-19T02:26:51;6.40;;;5.90;;
68176;SDS011;56478;50.982;7.032;2023-06-19T02:29:17;5.95;;;5.45;;
68176;SDS011;56478;50.982;7.032;2023-06-19T02:31:42;5.88;;;5.38;;
68176;SDS011;56478;50.982;7.032;2023-06-19T02:34:09;6.30;;;5.70;;
68176;SDS011;56478;50.982;7.032;2023-06-19T02:36:35;6.10;;;5.55;;
68176;SDS011;56478;50.982;7.032;2023-06-19T02:39:01;6.00;;;5.50;;
68176;SDS011;56478;50.982;7.032;2023-06-19T02:41:32;6.72;;;5.75;;
68176;SDS011;56478;50.982;7.032;2023-06-19T02:43:57;5.93;;;5.43;;
68176;SDS011;56478;50.982;7.032;2023-06-19T02:46:23;6.88;;;5.97;;
68176;SDS011;56478;50.982;7.032;2023-06-19T02:48:48;6.60;;;5.93;;
68176;SDS011;56478;50.982;7.032;2023-06-19T02:51:14;6.13;;;5.72;;
68176;SDS011;56478;50.982;7.032;2023-06-19T02:53:39;6.40;;;5.90;;
68176;SDS011;56478;50.982;7.032;2023-06-19T02:56:06;6.78;;;6.18;;
68176;SDS011;56478;50.982;7.032;2023-06-19T02:58:32;6.65;;;5.95;;
68176;SDS011;56478;50.982;7.032;2023-06-19T03:00:59;6.53;;;5.95;;
68176;SDS011;56478;50.982;7.032;2023-06-19T03:03:25;5.95;;;5.45;;
68176;SDS011;56478;50.982;7.032;2023-06-19T03:05:51;6.40;;;5.90;;
68176;SDS011;56478;50.982;7.032;2023-06-19T03:08:16;6.95;;;6.38;;
68176;SDS011;56478;50.982;7.032;2023-06-19T03:10:42;6.78;;;6.18;;
68176;SDS011;56478;50.982;7.032;2023-06-19T03:13:07;7.22;;;6.63;;
68176;SDS011;56478;50.982;7.032;2023-06-19T03:15:33;6.78;;;6.18;;
68176;SDS011;56478;50.982;7.032;2023-06-19T03:17:58;6.05;;;5.63;;
68176;SDS011;56478;50.982;7.032;2023-06-19T03:20:24;6.95;;;6.35;;
68176;SDS011;56478;50.982;7.032;2023-06-19T03:22:49;7.32;;;6.63;;
68176;SDS011;56478;50.982;7.032;2023-06-19T03:25:15;6.60;;;6.10;;
68176;SDS011;56478;50.982;7.032;2023-06-19T03:27:41;8.35;;;6.45;;
68176;SDS011;56478;50.982;7.032;2023-06-19T03:30:06;6.90;;;6.18;;
68176;SDS011;56478;50.982;7.032;2023-06-19T03:32:33;8.10;;;6.35;;
68176;SDS011;56478;50.982;7.032;2023-06-19T03:34:59;7.03;;;6.33;;
68176;SDS011;56478;50.982;7.032;2023-06-19T03:37:25;8.10;;;6.30;;
68176;SDS011;56478;50.982;7.032;2023-06-19T03:39:50;7.05;;;6.53;;
68176;SDS011;56478;50.982;7.032;2023-06-19T03:42:16;8.40;;;6.90;;
68176;SDS011;56478;50.982;7.032;2023-06-19T03:44:41;7.20;;;6.50;;
68176;SDS011;56478;50.982;7.032;2023-06-19T03:47:07;10.77;;;6.40;;
68176;SDS011;56478;50.982;7.032;2023-06-19T03:49:33;7.00;;;6.38;;
68176;SDS011;56478;50.982;7.032;2023-06-19T03:51:58;7.13;;;6.40;;
68176;SDS011;56478;50.982;7.032;2023-06-19T03:54:24;7.57;;;6.47;;
68176;SDS011;56478;50.982;7.032;2023-06-19T03:56:51;6.57;;;5.95;;
68176;SDS011;56478;50.982;7.032;2023-06-19T03:59:17;7.10;;;6.43;;
68176;SDS011;56478;50.982;7.032;2023-06-19T04:01:42;6.97;;;6.38;;
68176;SDS011;56478;50.982;7.032;2023-06-19T04:04:08;8.02;;;6.60;;
68176;SDS011;56478;50.982;7.032;2023-06-19T04:06:33;6.63;;;6.13;;
68176;SDS011;56478;50.982;7.032;2023-06-19T04:08:59;7.68;;;6.40;;
68176;SDS011;56478;50.982;7.032;2023-06-19T04:11:24;6.78;;;6.10;;
68176;SDS011;56478;50.982;7.032;2023-06-19T04:13:50;6.70;;;6.10;;
68176;SDS011;56478;50.982;7.032;2023-06-19T04:16:15;6.78;;;6.15;;
68176;SDS011;56478;50.982;7.032;2023-06-19T04:18:41;6.32;;;5.82;;
68176;SDS011;56478;50.982;7.032;2023-06-19T04:21:06;5.40;;;5.00;;
68176;SDS011;56478;50.982;7.032;2023-06-19T04:23:32;5.32;;;4.88;;
68176;SDS011;56478;50.982;7.032;2023-06-19T04:25:58;4.55;;;4.15;;
68176;SDS011;56478;50.982;7.032;2023-06-19T04:28:23;4.70;;;4.30;;
68176;SDS011;56478;50.982;7.032;2023-06-19T04:30:49;7.60;;;4.35;;
68176;SDS011;56478;50.982;7.032;2023-06-19T04:33:14;6.10;;;4.55;;
68176;SDS011;56478;50.982;7.032;2023-06-19T04:35:40;4.53;;;4.00;;
68176;SDS011;56478;50.982;7.032;2023-06-19T04:38:06;4.38;;;3.75;;
68176;SDS011;56478;50.982;7.032;2023-06-19T04:40:32;4.25;;;3.90;;
68176;SDS011;56478;50.982;7.032;2023-06-19T04:42:59;4.10;;;3.70;;
68176;SDS011;56478;50.982;7.032;2023-06-19T04:45:25;4.13;;;3.80;;
68176;SDS011;56478;50.982;7.032;2023-06-19T04:47:51;5.28;;;3.67;;
68176;SDS011;56478;50.982;7.032;2023-06-19T04:50:16;4.75;;;3.70;;
68176;SDS011;56478;50.982;7.032;2023-06-19T04:52:42;3.53;;;3.17;;
68176;SDS011;56478;50.982;7.032;2023-06-19T04:55:07;3.92;;;3.30;;
68176;SDS011;56478;50.982;7.032;2023-06-19T04:57:36;4.63;;;3.00;;
68176;SDS011;56478;50.982;7.032;2023-06-19T05:00:05;3.33;;;2.80;;
68176;SDS011;56478;50.982;7.032;2023-06-19T05:02:34;3.13;;;2.85;;
68176;SDS011;56478;50.982;7.032;2023-06-19T05:05:00;3.03;;;2.78;;
68176;SDS011;56478;50.982;7.032;2023-06-19T05:07:31;3.27;;;2.80;;
68176;SDS011;56478;50.982;7.032;2023-06-19T05:09:57;3.35;;;2.53;;
68176;SDS011;56478;50.982;7.032;2023-06-19T05:12:23;3.00;;;2.60;;
68176;SDS011;56478;50.982;7.032;2023-06-19T05:14:49;2.90;;;2.70;;
68176;SDS011;56478;50.982;7.032;2023-06-19T05:17:15;3.38;;;2.53;;
68176;SDS011;56478;50.982;7.032;2023-06-19T05:19:41;5.53;;;2.60;;
68176;SDS011;56478;50.982;7.032;2023-06-19T05:22:06;2.83;;;2.63;;
68176;SDS011;56478;50.982;7.032;2023-06-19T05:24:32;3.10;;;2.90;;
68176;SDS011;56478;50.982;7.032;2023-06-19T05:26:58;4.28;;;2.72;;
68176;SDS011;56478;50.982;7.032;2023-06-19T05:29:23;5.05;;;2.63;;
68176;SDS011;56478;50.982;7.032;2023-06-19T05:31:49;3.08;;;2.55;;
68176;SDS011;56478;50.982;7.032;2023-06-19T05:34:15;2.70;;;2.50;;
68176;SDS011;56478;50.982;7.032;2023-06-19T05:36:41;2.65;;;2.40;;
68176;SDS011;56478;50.982;7.032;2023-06-19T05:39:06;4.38;;;3.00;;
68176;SDS011;56478;50.982;7.032;2023-06-19T05:41:32;4.07;;;2.70;;
68176;SDS011;56478;50.982;7.032;2023-06-19T05:43:57;3.10;;;2.80;;
68176;SDS011;56478;50.982;7.032;2023-06-19T05:46:23;5.25;;;2.85;;
68176;SDS011;56478;50.982;7.032;2023-06-19T05:48:49;2.90;;;2.70;;
68176;SDS011;56478;50.982;7.032;2023-06-19T05:51:14;3.00;;;2.80;;
68176;SDS011;56478;50.982;7.032;2023-06-19T05:53:40;3.90;;;3.00;;
68176;SDS011;56478;50.982;7.032;2023-06-19T05:56:05;2.67;;;2.45;;
68176;SDS011;56478;50.982;7.032;2023-06-19T05:58:32;3.60;;;2.50;;
68176;SDS011;56478;50.982;7.032;2023-06-19T06:00:57;2.55;;;2.35;;
68176;SDS011;56478;50.982;7.032;2023-06-19T06:03:24;4.55;;;2.70;;
68176;SDS011;56478;50.982;7.032;2023-06-19T06:05:50;2.80;;;2.60;;
68176;SDS011;56478;50.982;7.032;2023-06-19T06:08:17;4.10;;;2.55;;
68176;SDS011;56478;50.982;7.032;2023-06-19T06:10:42;6.78;;;2.35;;
68176;SDS011;56478;50.982;7.032;2023-06-19T06:13:08;2.50;;;2.30;;
68176;SDS011;56478;50.982;7.032;2023-06-19T06:15:34;2.03;;;1.92;;
68176;SDS011;56478;50.982;7.032;2023-06-19T06:17:59;5.07;;;2.20;;
68176;SDS011;56478;50.982;7.032;2023-06-19T06:20:25;2.40;;;2.20;;
68176;SDS011;56478;50.982;7.032;2023-06-19T06:22:52;2.90;;;2.17;;
68176;SDS011;56478;50.982;7.032;2023-06-19T06:25:18;2.40;;;2.17;;
68176;SDS011;56478;50.982;7.032;2023-06-19T06:27:43;3.47;;;2.10;;
68176;SDS011;56478;50.982;7.032;2023-06-19T06:30:09;2.65;;;2.33;;
68176;SDS011;56478;50.982;7.032;2023-06-19T06:32:36;3.45;;;2.30;;
68176;SDS011;56478;50.982;7.032;2023-06-19T06:35:03;2.40;;;2.20;;
68176;SDS011;56478;50.982;7.032;2023-06-19T06:37:29;2.30;;;2.10;;
68176;SDS011;56478;50.982;7.032;2023-06-19T06:39:54;4.22;;;2.30;;
68176;SDS011;56478;50.982;7.032;2023-06-19T06:42:20;2.65;;;2.10;;
68176;SDS011;56478;50.982;7.032;2023-06-19T06:44:46;2.58;;;2.20;;
68176;SDS011;56478;50.982;7.032;2023-06-19T06:47:11;2.33;;;2.13;;
68176;SDS011;56478;50.982;7.032;2023-06-19T06:49:37;2.70;;;2.03;;
68176;SDS011;56478;50.982;7.032;2023-06-19T06:52:06;2.00;;;1.90;;
68176;SDS011;56478;50.982;7.032;2023-06-19T06:54:32;4.78;;;2.00;;
68176;SDS011;56478;50.982;7.032;2023-06-19T06:56:58;2.45;;;2.03;;
68176;SDS011;56478;50.982;7.032;2023-06-19T06:59:25;2.95;;;2.05;;
68176;SDS011;56478;50.982;7.032;2023-06-19T07:01:52;2.15;;;1.80;;
68176;SDS011;56478;50.982;7.032;2023-06-19T07:04:21;2.92;;;1.90;;
68176;SDS011;56478;50.982;7.032;2023-06-19T07:06:47;1.90;;;1.80;;
68176;SDS011;56478;50.982;7.032;2023-06-19T07:09:13;1.90;;;1.80;;
68176;SDS011;56478;50.982;7.032;2023-06-19T07:11:40;1.95;;;1.85;;
68176;SDS011;56478;50.982;7.032;2023-06-19T07:14:05;2.25;;;1.90;;
68176;SDS011;56478;50.982;7.032;2023-06-19T07:16:31;2.00;;;1.80;;
68176;SDS011;56478;50.982;7.032;2023-06-19T07:18:57;3.60;;;1.70;;
68176;SDS011;56478;50.982;7.032;2023-06-19T07:21:22;4.30;;;1.80;;
68176;SDS011;56478;50.982;7.032;2023-06-19T07:23:48;4.70;;;1.60;;
68176;SDS011;56478;50.982;7.032;2023-06-19T07:26:14;4.57;;;1.63;;
68176;SDS011;56478;50.982;7.032;2023-06-19T07:28:40;2.42;;;1.60;;
68176;SDS011;56478;50.982;7.032;2023-06-19T07:31:06;1.70;;;1.60;;
68176;SDS011;56478;50.982;7.032;2023-06-19T07:33:33;1.90;;;1.80;;
68176;SDS011;56478;50.982;7.032;2023-06-19T07:35:58;3.25;;;1.50;;
68176;SDS011;56478;50.982;7.032;2023-06-19T07:38:24;2.65;;;1.50;;
68176;SDS011;56478;50.982;7.032;2023-06-19T07:40:50;1.60;;;1.50;;
68176;SDS011;56478;50.982;7.032;2023-06-19T07:43:15;1.80;;;1.70;;
68176;SDS011;56478;50.982;7.032;2023-06-19T07:45:42;1.80;;;1.70;;
68176;SDS011;56478;50.982;7.032;2023-06-19T07:48:08;2.42;;;1.50;;
68176;SDS011;56478;50.982;7.032;2023-06-19T07:50:33;1.80;;;1.70;;
68176;SDS011;56478;50.982;7.032;2023-06-19T07:52:59;1.92;;;1.60;;
68176;SDS011;56478;50.982;7.032;2023-06-19T07:55:24;1.92;;;1.58;;
68176;SDS011;56478;50.982;7.032;2023-06-19T07:57:50;1.70;;;1.58;;
68176;SDS011;56478;50.982;7.032;2023-06-19T08:00:17;3.28;;;1.77;;
68176;SDS011;56478;50.982;7.032;2023-06-19T08:02:43;1.90;;;1.70;;
68176;SDS011;56478;50.982;7.032;2023-06-19T08:05:09;8.35;;;1.80;;
68176;SDS011;56478;50.982;7.032;2023-06-19T08:07:35;2.75;;;1.70;;
68176;SDS011;56478;50.982;7.032;2023-06-19T08:10:01;7.55;;;2.33;;
68176;SDS011;56478;50.982;7.032;2023-06-19T08:12:29;3.95;;;1.70;;
68176;SDS011;56478;50.982;7.032;2023-06-19T08:14:55;3.15;;;1.67;;
68176;SDS011;56478;50.982;7.032;2023-06-19T08:17:21;3.40;;;1.65;;
68176;SDS011;56478;50.982;7.032;2023-06-19T08:19:47;1.85;;;1.70;;
68176;SDS011;56478;50.982;7.032;2023-06-19T08:22:12;5.07;;;1.80;;
68176;SDS011;56478;50.982;7.032;2023-06-19T08:24:38;3.30;;;1.80;;
68176;SDS011;56478;50.982;7.032;2023-06-19T08:27:06;5.20;;;1.90;;
68176;SDS011;56478;50.982;7.032;2023-06-19T08:29:32;5.35;;;1.80;;
68176;SDS011;56478;50.982;7.032;2023-06-19T08:31:57;6.93;;;1.83;;
68176;SDS011;56478;50.982;7.032;2023-06-19T08:34:23;3.53;;;1.85;;
68176;SDS011;56478;50.982;7.032;2023-06-19T08:36:48;3.55;;;1.90;;
68176;SDS011;56478;50.982;7.032;2023-06-19T08:39:14;2.22;;;1.70;;
68176;SDS011;56478;50.982;7.032;2023-06-19T08:41:39;2.00;;;1.90;;
68176;SDS011;56478;50.982;7.032;2023-06-19T08:44:06;3.58;;;1.95;;
68176;SDS011;56478;50.982;7.032;2023-06-19T08:46:33;4.82;;;2.90;;
68176;SDS011;56478;50.982;7.032;2023-06-19T08:48:59;2.83;;;1.63;;
68176;SDS011;56478;50.982;7.032;2023-06-19T08:51:28;2.13;;;1.83;;
68176;SDS011;56478;50.982;7.032;2023-06-19T08:53:56;2.70;;;1.90;;
68176;SDS011;56478;50.982;7.032;2023-06-19T08:56:25;1.88;;;1.70;;
68176;SDS011;56478;50.982;7.032;2023-06-19T08:58:51;2.25;;;1.67;;
68176;SDS011;56478;50.982;7.032;2023-06-19T09:01:17;3.85;;;1.90;;
68176;SDS011;56478;50.982;7.032;2023-06-19T09:03:44;2.42;;;1.80;;
68176;SDS011;56478;50.982;7.032;2023-06-19T09:06:14;1.95;;;1.80;;
68176;SDS011;56478;50.982;7.032;2023-06-19T09:08:41;2.00;;;1.80;;
68176;SDS011;56478;50.982;7.032;2023-06-19T09:11:06;2.63;;;1.70;;
68176;SDS011;56478;50.982;7.032;2023-06-19T09:13:32;3.20;;;1.95;;
68176;SDS011;56478;50.982;7.032;2023-06-19T09:16:03;3.67;;;1.80;;
68176;SDS011;56478;50.982;7.032;2023-06-19T09:18:43;2.67;;;1.92;;
68176;SDS011;56478;50.982;7.032;2023-06-19T09:21:17;3.13;;;2.30;;
68176;SDS011;56478;50.982;7.032;2023-06-19T09:23:43;5.28;;;2.30;;
68176;SDS011;56478;50.982;7.032;2023-06-19T09:26:16;2.60;;;2.40;;
68176;SDS011;56478;50.982;7.032;2023-06-19T09:28:43;4.00;;;2.25;;
68176;SDS011;56478;50.982;7.032;2023-06-19T09:31:08;5.70;;;2.25;;
68176;SDS011;56478;50.982;7.032;2023-06-19T09:33:34;3.55;;;2.35;;
68176;SDS011;56478;50.982;7.032;2023-06-19T09:36:01;3.22;;;2.55;;
68176;SDS011;56478;50.982;7.032;2023-06-19T09:38:35;3.60;;;2.25;;
68176;SDS011;56478;50.982;7.032;2023-06-19T09:41:05;4.53;;;2.58;;
68176;SDS011;56478;50.982;7.032;2023-06-19T09:43:42;5.38;;;2.63;;
68176;SDS011;56478;50.982;7.032;2023-06-19T09:46:09;4.55;;;2.58;;
68176;SDS011;56478;50.982;7.032;2023-06-19T09:51:19;3.45;;;2.72;;
68176;SDS011;56478;50.982;7.032;2023-06-19T09:53:48;5.10;;;2.75;;
68176;SDS011;56478;50.982;7.032;2023-06-19T09:56:15;5.13;;;2.80;;
68176;SDS011;56478;50.982;7.032;2023-06-19T09:58:44;6.72;;;2.90;;
68176;SDS011;56478;50.982;7.032;2023-06-19T10:01:11;6.25;;;2.75;;
68176;SDS011;56478;50.982;7.032;2023-06-19T10:03:37;7.70;;;2.95;;
68176;SDS011;56478;50.982;7.032;2023-06-19T10:06:05;5.32;;;2.75;;
68176;SDS011;56478;50.982;7.032;2023-06-19T10:08:32;5.53;;;3.58;;
68176;SDS011;56478;50.982;7.032;2023-06-19T10:11:04;3.22;;;2.88;;
68176;SDS011;56478;50.982;7.032;2023-06-19T10:13:31;4.88;;;2.83;;
68176;SDS011;56478;50.982;7.032;2023-06-19T10:15:58;6.25;;;2.78;;
68176;SDS011;56478;50.982;7.032;2023-06-19T10:18:24;6.43;;;3.05;;
68176;SDS011;56478;50.982;7.032;2023-06-19T10:20:51;8.48;;;3.13;;
68176;SDS011;56478;50.982;7.032;2023-06-19T10:23:19;3.90;;;2.88;;
68176;SDS011;56478;50.982;7.032;2023-06-19T10:25:48;7.53;;;3.13;;
68176;SDS011;56478;50.982;7.032;2023-06-19T10:28:21;12.20;;;3.40;;
68176;SDS011;56478;50.982;7.032;2023-06-19T10:30:54;13.07;;;3.50;;
68176;SDS011;56478;50.982;7.032;2023-06-19T10:33:31;10.75;;;3.13;;
68176;SDS011;56478;50.982;7.032;2023-06-19T10:38:27;6.25;;;3.35;;
68176;SDS011;56478;50.982;7.032;2023-06-19T10:40:54;3.13;;;2.85;;
68176;SDS011;56478;50.982;7.032;2023-06-19T10:43:21;16.23;;;3.40;;
68176;SDS011;56478;50.982;7.032;2023-06-19T10:45:52;7.03;;;3.70;;
68176;SDS011;56478;50.982;7.032;2023-06-19T10:48:19;8.00;;;3.10;;
68176;SDS011;56478;50.982;7.032;2023-06-19T10:50:46;4.20;;;2.92;;
68176;SDS011;56478;50.982;7.032;2023-06-19T10:53:22;3.42;;;3.10;;
68176;SDS011;56478;50.982;7.032;2023-06-19T10:55:58;4.82;;;3.05;;
68176;SDS011;56478;50.982;7.032;2023-06-19T10:58:25;8.07;;;3.20;;
68176;SDS011;56478;50.982;7.032;2023-06-19T11:00:51;9.20;;;2.97;;
68176;SDS011;56478;50.982;7.032;2023-06-19T11:03:18;7.60;;;3.38;;
68176;SDS011;56478;50.982;7.032;2023-06-19T11:08:10;4.13;;;3.10;;
68176;SDS011;56478;50.982;7.032;2023-06-19T11:10:35;4.25;;;3.08;;
68176;SDS011;56478;50.982;7.032;2023-06-19T11:13:01;3.42;;;3.10;;
68176;SDS011;56478;50.982;7.032;2023-06-19T11:15:31;7.78;;;3.60;;
68176;SDS011;56478;50.982;7.032;2023-06-19T11:17:57;10.23;;;3.33;;
68176;SDS011;56478;50.982;7.032;2023-06-19T11:20:24;5.32;;;3.35;;
68176;SDS011;56478;50.982;7.032;2023-06-19T11:23:01;16.88;;;4.03;;
68176;SDS011;56478;50.982;7.032;2023-06-19T11:25:36;7.45;;;3.50;;
68176;SDS011;56478;50.982;7.032;2023-06-19T11:28:04;7.90;;;3.40;;
68176;SDS011;56478;50.982;7.032;2023-06-19T11:30:30;7.97;;;3.85;;
68176;SDS011;56478;50.982;7.032;2023-06-19T11:32:59;4.75;;;3.28;;
68176;SDS011;56478;50.982;7.032;2023-06-19T11:35:31;4.95;;;3.40;;
68176;SDS011;56478;50.982;7.032;2023-06-19T11:38:00;5.55;;;3.22;;
68176;SDS011;56478;50.982;7.032;2023-06-19T11:40:26;5.95;;;3.53;;
68176;SDS011;56478;50.982;7.032;2023-06-19T11:45:20;6.05;;;3.53;;
68176;SDS011;56478;50.982;7.032;2023-06-19T11:47:46;7.63;;;3.50;;
68176;SDS011;56478;50.982;7.032;2023-06-19T11:50:12;4.53;;;3.38;;
68176;SDS011;56478;50.982;7.032;2023-06-19T11:52:39;5.45;;;3.28;;
68176;SDS011;56478;50.982;7.032;2023-06-19T11:55:05;6.82;;;3.38;;
68176;SDS011;56478;50.982;7.032;2023-06-19T11:57:31;7.18;;;3.58;;
68176;SDS011;56478;50.982;7.032;2023-06-19T11:59:58;4.30;;;3.45;;
68176;SDS011;56478;50.982;7.032;2023-06-19T12:02:23;10.95;;;3.50;;
68176;SDS011;56478;50.982;7.032;2023-06-19T12:04:49;10.43;;;3.50;;
68176;SDS011;56478;50.982;7.032;2023-06-19T12:07:15;3.83;;;3.22;;
68176;SDS011;56478;50.982;7.032;2023-06-19T12:09:41;3.90;;;3.50;;
68176;SDS011;56478;50.982;7.032;2023-06-19T12:12:08;4.50;;;3.38;;
68176;SDS011;56478;50.982;7.032;2023-06-19T12:14:34;5.45;;;3.25;;
68176;SDS011;56478;50.982;7.032;2023-06-19T12:17:00;4.38;;;3.30;;
68176;SDS011;56478;50.982;7.032;2023-06-19T12:19:26;5.55;;;3.30;;
68176;SDS011;56478;50.982;7.032;2023-06-19T12:21:53;7.07;;;3.17;;
68176;SDS011;56478;50.982;7.032;2023-06-19T12:24:18;5.10;;;3.40;;
68176;SDS011;56478;50.982;7.032;2023-06-19T12:26:44;4.07;;;3.53;;
68176;SDS011;56478;50.982;7.032;2023-06-19T12:29:10;6.38;;;3.47;;
68176;SDS011;56478;50.982;7.032;2023-06-19T12:31:36;6.10;;;3.95;;
68176;SDS011;56478;50.982;7.032;2023-06-19T12:34:02;3.50;;;3.20;;
68176;SDS011;56478;50.982;7.032;2023-06-19T12:36:28;8.65;;;3.50;;
68176;SDS011;56478;50.982;7.032;2023-06-19T12:38:58;7.50;;;3.60;;
68176;SDS011;56478;50.982;7.032;2023-06-19T12:41:24;8.38;;;4.20;;
68176;SDS011;56478;50.982;7.032;2023-06-19T12:43:50;6.40;;;3.47;;
68176;SDS011;56478;50.982;7.032;2023-06-19T12:46:15;5.07;;;3.33;;
68176;SDS011;56478;50.982;7.032;2023-06-19T12:48:41;8.50;;;3.60;;
68176;SDS011;56478;50.982;7.032;2023-06-19T12:51:07;4.50;;;3.13;;
68176;SDS011;56478;50.982;7.032;2023-06-19T12:53:33;5.57;;;3.42;;
68176;SDS011;56478;50.982;7.032;2023-06-19T12:55:58;7.25;;;3.50;;
68176;SDS011;56478;50.982;7.032;2023-06-19T12:58:24;6.47;;;3.00;;
68176;SDS011;56478;50.982;7.032;2023-06-19T13:00:51;8.27;;;3.60;;
68176;SDS011;56478;50.982;7.032;2023-06-19T13:03:17;8.50;;;3.30;;
68176;SDS011;56478;50.982;7.032;2023-06-19T13:05:44;5.47;;;3.33;;
68176;SDS011;56478;50.982;7.032;2023-06-19T13:08:10;9.07;;;3.70;;
68176;SDS011;56478;50.982;7.032;2023-06-19T13:10:36;4.30;;;3.10;;
68176;SDS011;56478;50.982;7.032;2023-06-19T13:13:02;4.93;;;3.22;;
68176;SDS011;56478;50.982;7.032;2023-06-19T13:17:56;3.50;;;3.20;;
68176;SDS011;56478;50.982;7.032;2023-06-19T13:20:22;5.13;;;2.88;;
68176;SDS011;56478;50.982;7.032;2023-06-19T13:22:47;8.43;;;3.45;;
68176;SDS011;56478;50.982;7.032;2023-06-19T13:25:13;10.02;;;3.90;;
68176;SDS011;56478;50.982;7.032;2023-06-19T13:27:39;5.22;;;3.20;;
68176;SDS011;56478;50.982;7.032;2023-06-19T13:30:05;7.43;;;3.35;;
68176;SDS011;56478;50.982;7.032;2023-06-19T13:32:31;3.30;;;3.00;;
68176;SDS011;56478;50.982;7.032;2023-06-19T13:34:56;5.65;;;3.08;;
68176;SDS011;56478;50.982;7.032;2023-06-19T13:37:22;3.13;;;2.80;;
68176;SDS011;56478;50.982;7.032;2023-06-19T13:39:48;4.00;;;2.90;;
68176;SDS011;56478;50.982;7.032;2023-06-19T13:42:14;2.92;;;2.72;;
68176;SDS011;56478;50.982;7.032;2023-06-19T13:44:39;4.53;;;3.13;;
68176;SDS011;56478;50.982;7.032;2023-06-19T13:47:05;3.35;;;3.10;;
68176;SDS011;56478;50.982;7.032;2023-06-19T13:49:31;5.78;;;3.20;;
68176;SDS011;56478;50.982;7.032;2023-06-19T13:51:57;11.38;;;3.65;;
68176;SDS011;56478;50.982;7.032;2023-06-19T13:54:22;4.93;;;3.40;;
68176;SDS011;56478;50.982;7.032;2023-06-19T13:56:48;3.75;;;3.10;;
68176;SDS011;56478;50.982;7.032;2023-06-19T13:59:16;5.68;;;3.30;;
68176;SDS011;56478;50.982;7.032;2023-06-19T14:01:42;12.50;;;3.38;;
68176;SDS011;56478;50.982;7.032;2023-06-19T14:04:07;3.63;;;3.10;;
68176;SDS011;56478;50.982;7.032;2023-06-19T14:06:36;9.85;;;3.10;;
68176;SDS011;56478;50.982;7.032;2023-06-19T14:09:03;4.90;;;3.00;;
68176;SDS011;56478;50.982;7.032;2023-06-19T14:11:29;5.30;;;3.40;;
68176;SDS011;56478;50.982;7.032;2023-06-19T14:13:54;5.07;;;3.22;;
68176;SDS011;56478;50.982;7.032;2023-06-19T14:16:21;4.03;;;3.20;;
68176;SDS011;56478;50.982;7.032;2023-06-19T14:18:46;4.72;;;3.10;;
68176;SDS011;56478;50.982;7.032;2023-06-19T14:21:12;4.60;;;3.55;;
68176;SDS011;56478;50.982;7.032;2023-06-19T14:23:38;4.65;;;3.10;;
68176;SDS011;56478;50.982;7.032;2023-06-19T14:26:08;4.13;;;3.10;;
68176;SDS011;56478;50.982;7.032;2023-06-19T14:28:36;6.33;;;3.10;;
68176;SDS011;56478;50.982;7.032;2023-06-19T14:31:03;5.40;;;3.17;;
68176;SDS011;56478;50.982;7.032;2023-06-19T14:33:29;3.92;;;3.20;;
68176;SDS011;56478;50.982;7.032;2023-06-19T14:35:55;3.25;;;3.03;;
68176;SDS011;56478;50.982;7.032;2023-06-19T14:38:20;4.55;;;3.10;;
68176;SDS011;56478;50.982;7.032;2023-06-19T14:40:46;3.78;;;3.08;;
68176;SDS011;56478;50.982;7.032;2023-06-19T14:45:39;3.40;;;3.10;;
68176;SDS011;56478;50.982;7.032;2023-06-19T14:50:33;3.70;;;3.05;;
68176;SDS011;56478;50.982;7.032;2023-06-19T14:53:00;5.32;;;3.20;;
68176;SDS011;56478;50.982;7.032;2023-06-19T14:55:26;5.43;;;3.30;;
68176;SDS011;56478;50.982;7.032;2023-06-19T14:57:51;3.88;;;3.17;;
68176;SDS011;56478;50.982;7.032;2023-06-19T15:00:17;5.65;;;3.05;;
68176;SDS011;56478;50.982;7.032;2023-06-19T15:02:43;3.92;;;3.25;;